Time;durP1;ratioP1;P1;durP2;ratioP2;P2;SDS_P1;SDS_P2;PMS_P1;PMS_P2;Temp;Humidity;BMP_temperature;BMP_pressure;BME280_temperature;BME280_humidity;BME280_pressure;Samples;Min_cycle;Max_cycle;Signal;HPM_P1;HPM_P2
2022/09/18 00:01:26;;;;;;;9.90;1.67;;;11.80;99.90;;;;;;4936133;28;94350;-73
2022/09/18 00:03:56;;;;;;;8.13;1.88;;;11.80;99.90;;;;;;4936531;28;92358;-73
2022/09/18 00:06:25;;;;;;;6.03;1.50;;;11.90;99.90;;;;;;4934407;28;95963;-73
2022/09/18 00:08:54;;;;;;;9.40;2.17;;;11.90;99.90;;;;;;4936084;28;94351;-73
2022/09/18 00:11:23;;;;;;;9.05;2.13;;;11.90;99.90;;;;;;4935956;28;92363;-73
2022/09/18 00:13:51;;;;;;;8.52;1.33;;;12.00;99.90;;;;;;4936274;28;92432;-73
2022/09/18 00:16:21;;;;;;;8.82;1.65;;;11.90;99.90;;;;;;4936100;28;93166;-73
2022/09/18 00:18:48;;;;;;;4.20;1.25;;;11.90;99.90;;;;;;4934484;28;95480;-73
2022/09/18 00:21:18;;;;;;;6.97;1.42;;;11.90;99.90;;;;;;4934806;28;92495;-73
2022/09/18 00:23:46;;;;;;;8.27;1.40;;;11.90;99.90;;;;;;4937046;28;92096;-73
2022/09/18 00:26:15;;;;;;;9.52;1.45;;;11.80;99.90;;;;;;4934317;28;95857;-73
2022/09/18 00:28:42;;;;;;;7.28;1.48;;;11.80;99.90;;;;;;4935898;28;95168;-73
2022/09/18 00:31:13;;;;;;;11.85;1.50;;;11.80;99.90;;;;;;4934693;28;94831;-73
2022/09/18 00:33:40;;;;;;;5.32;1.70;;;11.80;99.90;;;;;;4936335;28;92521;-73
2022/09/18 00:36:10;;;;;;;6.55;1.40;;;11.80;99.90;;;;;;4934388;28;96174;-73
2022/09/18 00:38:37;;;;;;;9.20;2.15;;;11.80;99.90;;;;;;4934321;28;95747;-73
2022/09/18 00:41:07;;;;;;;10.13;1.40;;;11.80;99.90;;;;;;4937950;28;92487;-73
2022/09/18 00:43:36;;;;;;;10.85;1.58;;;11.80;99.90;;;;;;4937921;28;92525;-73
2022/09/18 00:46:03;;;;;;;9.07;1.90;;;11.90;99.90;;;;;;4938997;28;93208;-73
2022/09/18 00:48:42;;;;;;;8.40;1.85;;;11.80;99.90;;;;;;4938015;28;95662;-73
2022/09/18 00:51:10;;;;;;;9.77;1.70;;;11.90;99.90;;;;;;4937806;28;92528;-73
2022/09/18 00:53:40;;;;;;;7.00;1.40;;;11.80;99.90;;;;;;4937715;28;92541;-73
2022/09/18 00:56:10;;;;;;;7.38;1.20;;;11.80;99.90;;;;;;4920242;28;98291;-73
2022/09/18 00:58:37;;;;;;;9.55;2.33;;;11.90;99.90;;;;;;4938814;28;96248;-73
2022/09/18 01:01:06;;;;;;;8.45;1.63;;;11.90;99.90;;;;;;4921910;28;92472;-73
2022/09/18 01:03:33;;;;;;;5.13;1.27;;;11.90;99.90;;;;;;4937587;28;92447;-73
2022/09/18 01:06:09;;;;;;;6.25;1.25;;;11.90;99.90;;;;;;4921533;28;96590;-73
2022/09/18 01:09:13;;;;;;;10.18;2.25;;;11.90;99.90;;;;;;4939155;28;92686;-73
2022/09/18 01:12:09;;;;;;;8.27;1.60;;;11.90;99.90;;;;;;4937407;28;92659;-73
2022/09/18 01:14:58;;;;;;;5.82;1.20;;;11.80;99.90;;;;;;4937705;28;91882;-73
2022/09/18 01:17:47;;;;;;;11.13;2.35;;;11.70;99.90;;;;;;4936972;28;95754;-73
2022/09/18 01:20:51;;;;;;;5.57;1.27;;;11.80;99.90;;;;;;4937119;28;96384;-73
2022/09/18 01:23:52;;;;;;;7.43;2.13;;;11.80;99.90;;;;;;4935903;28;95455;-73
2022/09/18 01:26:25;;;;;;;8.73;1.60;;;11.80;99.90;;;;;;4937150;28;93038;-73
2022/09/18 01:29:20;;;;;;;9.97;1.67;;;11.90;99.90;;;;;;4938690;28;93256;-73
2022/09/18 01:32:19;;;;;;;9.25;2.45;;;11.90;99.90;;;;;;4920865;28;95885;-73
2022/09/18 01:34:58;;;;;;;7.07;1.55;;;11.90;99.90;;;;;;4937036;28;92470;-73
2022/09/18 01:37:29;;;;;;;14.43;2.10;;;11.90;99.90;;;;;;4920789;28;93018;-73
2022/09/18 01:40:05;;;;;;;7.32;1.40;;;11.90;99.90;;;;;;4936824;28;95873;-73
2022/09/18 01:42:34;;;;;;;9.88;1.80;;;11.90;99.90;;;;;;4936648;28;93992;-73
2022/09/18 01:45:10;;;;;;;8.80;2.22;;;11.90;99.90;;;;;;4937261;28;93102;-73
2022/09/18 01:47:47;;;;;;;4.97;1.40;;;11.90;99.90;;;;;;4937009;28;92621;-73
2022/09/18 01:50:16;;;;;;;7.35;1.52;;;11.90;99.90;;;;;;4935411;28;97774;-73
2022/09/18 01:53:01;;;;;;;7.43;2.03;;;11.90;99.90;;;;;;4919610;28;97782;-73
2022/09/18 01:55:30;;;;;;;7.18;2.03;;;11.90;99.90;;;;;;4936834;28;92927;-73
2022/09/18 01:58:07;;;;;;;10.30;1.60;;;11.90;99.90;;;;;;4936678;28;92527;-73
2022/09/18 02:00:42;;;;;;;9.35;1.52;;;11.90;99.90;;;;;;4920456;28;95979;-73
2022/09/18 02:03:17;;;;;;;8.45;1.95;;;12.00;99.90;;;;;;4936333;28;95403;-73
2022/09/18 02:05:53;;;;;;;6.05;1.10;;;11.90;99.90;;;;;;4936703;28;92563;-73
2022/09/18 02:08:32;;;;;;;8.27;1.75;;;12.00;99.90;;;;;;4936765;28;91773;-73
2022/09/18 02:11:06;;;;;;;6.30;1.52;;;12.00;99.90;;;;;;4936431;28;95262;-73
2022/09/18 02:13:41;;;;;;;9.48;1.92;;;12.00;99.90;;;;;;4936214;28;95265;-73
2022/09/18 02:16:49;;;;;;;8.70;1.65;;;12.00;99.90;;;;;;4935478;28;94882;-73
2022/09/18 02:19:21;;;;;;;6.45;2.15;;;12.10;99.90;;;;;;4919757;28;94096;-73
2022/09/18 02:21:50;;;;;;;6.22;1.55;;;12.00;99.90;;;;;;4935882;28;95656;-73
2022/09/18 02:24:23;;;;;;;4.80;2.10;;;12.00;99.90;;;;;;4937412;28;93060;-73
2022/09/18 02:26:52;;;;;;;7.25;1.67;;;12.10;99.90;;;;;;4920393;28;92416;-73
2022/09/18 02:29:23;;;;;;;11.70;2.33;;;12.00;99.90;;;;;;4935859;28;92566;-73
2022/09/18 02:31:50;;;;;;;9.65;1.40;;;12.00;99.90;;;;;;4937574;28;93253;-73
2022/09/18 02:34:19;;;;;;;9.88;1.67;;;12.00;99.90;;;;;;4937346;28;101729;-73
2022/09/18 02:37:28;;;;;;;12.18;1.75;;;12.00;99.90;;;;;;4920584;28;92899;-73
2022/09/18 02:40:00;;;;;;;9.45;1.95;;;12.00;99.90;;;;;;4927979;28;92628;-73
2022/09/18 02:42:38;;;;;;;8.13;1.55;;;11.90;99.90;;;;;;4933981;28;97966;-73
2022/09/18 02:45:27;;;;;;;5.03;1.65;;;11.80;99.90;;;;;;4935680;28;97774;-73
2022/09/18 02:48:13;;;;;;;7.47;1.67;;;11.80;99.90;;;;;;4936293;28;93148;-73
2022/09/18 02:51:02;;;;;;;6.15;1.52;;;11.70;99.90;;;;;;4935438;28;93745;-73
2022/09/18 02:53:49;;;;;;;9.63;1.80;;;11.80;99.90;;;;;;4935605;28;95785;-73
2022/09/18 02:56:24;;;;;;;7.55;1.40;;;11.70;99.90;;;;;;4935644;28;95295;-73
2022/09/18 02:58:57;;;;;;;7.13;1.55;;;11.60;99.90;;;;;;4919845;28;92858;-73
2022/09/18 03:01:26;;;;;;;10.07;1.63;;;11.60;99.90;;;;;;4935967;28;91675;-73
2022/09/18 03:03:54;;;;;;;8.40;2.10;;;11.60;99.90;;;;;;4935117;28;95273;-73
2022/09/18 03:06:31;;;;;;;7.15;2.63;;;11.60;99.90;;;;;;4935272;28;94436;-73
2022/09/18 03:08:58;;;;;;;9.02;1.92;;;11.60;99.90;;;;;;4918565;28;94968;-73
2022/09/18 03:11:25;;;;;;;11.93;1.92;;;11.60;99.90;;;;;;4919407;28;92868;-73
2022/09/18 03:13:53;;;;;;;8.52;1.52;;;11.60;99.90;;;;;;4935309;28;95580;-73
2022/09/18 03:16:20;;;;;;;6.53;1.88;;;11.60;99.90;;;;;;4919294;28;95474;-73
2022/09/18 03:18:47;;;;;;;8.95;1.95;;;11.60;99.90;;;;;;4935288;28;92547;-73
2022/09/18 03:21:14;;;;;;;6.85;1.10;;;11.60;99.90;;;;;;4919460;28;92501;-73
2022/09/18 03:23:42;;;;;;;6.25;1.40;;;11.70;99.90;;;;;;4935201;28;95602;-73
2022/09/18 03:26:18;;;;;;;9.23;1.77;;;11.70;99.90;;;;;;4935428;28;95027;-73
2022/09/18 03:28:45;;;;;;;7.45;1.58;;;11.80;99.90;;;;;;4935265;28;92610;-73
2022/09/18 03:31:14;;;;;;;10.10;1.67;;;11.80;99.90;;;;;;4935544;28;92581;-73
2022/09/18 03:33:41;;;;;;;10.57;2.03;;;11.90;99.90;;;;;;4933649;28;98298;-73
2022/09/18 03:36:08;;;;;;;5.38;1.33;;;11.90;99.90;;;;;;4919143;28;96581;-73
2022/09/18 03:38:36;;;;;;;7.30;1.27;;;12.00;99.90;;;;;;4935131;28;93176;-73
2022/09/18 03:41:05;;;;;;;3.78;1.10;;;12.00;99.90;;;;;;4918733;28;92387;-73
2022/09/18 03:43:33;;;;;;;5.80;1.95;;;12.00;99.90;;;;;;4934849;28;95358;-73
2022/09/18 03:46:00;;;;;;;6.70;2.65;;;12.00;99.90;;;;;;4935025;28;95172;-73
2022/09/18 03:48:27;;;;;;;9.55;1.75;;;12.10;99.90;;;;;;4934996;28;92442;-73
2022/09/18 03:50:54;;;;;;;6.43;1.38;;;12.10;99.90;;;;;;4919571;28;91713;-73
2022/09/18 03:53:21;;;;;;;5.38;1.50;;;12.10;99.90;;;;;;4918681;28;95590;-73
2022/09/18 03:56:13;;;;;;;7.22;2.00;;;12.20;99.90;;;;;;4929381;28;92682;-73
2022/09/18 03:58:58;;;;;;;9.50;1.92;;;12.20;99.90;;;;;;4935318;28;94866;-73
2022/09/18 04:01:35;;;;;;;7.40;1.65;;;12.20;99.90;;;;;;4934828;28;92558;-73
2022/09/18 04:04:20;;;;;;;9.18;1.50;;;12.10;99.90;;;;;;4933378;28;92924;-73
2022/09/18 04:07:07;;;;;;;11.02;2.50;;;12.10;99.90;;;;;;4935235;28;92401;-73
2022/09/18 04:10:13;;;;;;;5.38;1.25;;;12.10;99.90;;;;;;4895144;28;92642;-73
2022/09/18 04:12:42;;;;;;;4.47;1.58;;;12.00;99.90;;;;;;4879336;28;92526;-73
2022/09/18 04:15:23;;;;;;;5.13;1.25;;;12.00;99.90;;;;;;4912431;28;95639;-73
2022/09/18 04:17:50;;;;;;;9.70;1.63;;;12.10;99.90;;;;;;4939505;28;93042;-73
2022/09/18 04:20:18;;;;;;;8.32;1.25;;;12.10;99.90;;;;;;4922177;28;92499;-73
2022/09/18 04:22:45;;;;;;;5.35;1.60;;;12.10;99.90;;;;;;4938309;28;92571;-73
2022/09/18 04:25:12;;;;;;;4.70;1.40;;;12.10;99.90;;;;;;4920728;28;98227;-73
2022/09/18 04:27:41;;;;;;;4.07;1.75;;;12.20;99.90;;;;;;4937724;28;97607;-73
2022/09/18 04:30:10;;;;;;;4.68;1.10;;;12.20;99.90;;;;;;4922096;28;92542;-73
2022/09/18 04:32:41;;;;;;;9.60;1.98;;;12.20;99.90;;;;;;4921998;28;92460;-73
2022/09/18 04:35:08;;;;;;;8.48;1.23;;;12.20;99.90;;;;;;4937868;28;95564;-73
2022/09/18 04:37:35;;;;;;;8.55;1.63;;;12.30;99.90;;;;;;4921576;28;95333;-73
2022/09/18 04:40:06;;;;;;;6.78;1.38;;;12.30;99.90;;;;;;4937969;28;92506;-73
2022/09/18 04:42:33;;;;;;;6.88;1.55;;;12.30;99.90;;;;;;4921827;28;91785;-73
2022/09/18 04:45:00;;;;;;;6.25;1.13;;;12.20;99.90;;;;;;4937946;28;94474;-73
2022/09/18 04:47:27;;;;;;;4.22;1.60;;;12.30;99.90;;;;;;4937524;28;95837;-73
2022/09/18 04:49:54;;;;;;;5.68;1.63;;;12.30;99.90;;;;;;4936739;28;94802;-73
2022/09/18 04:52:24;;;;;;;5.10;0.90;;;12.30;99.90;;;;;;4937790;28;92537;-73
2022/09/18 04:54:51;;;;;;;4.88;1.77;;;12.30;99.90;;;;;;4921572;28;95532;-73
2022/09/18 04:57:18;;;;;;;8.73;1.70;;;12.30;99.90;;;;;;4921308;28;95165;-73
2022/09/18 04:59:46;;;;;;;6.13;1.38;;;12.30;99.90;;;;;;4921604;28;92561;-73
2022/09/18 05:02:13;;;;;;;4.13;1.30;;;12.30;99.90;;;;;;4921515;28;92501;-73
2022/09/18 05:04:40;;;;;;;4.93;1.48;;;12.40;99.90;;;;;;4905129;28;95927;-73
2022/09/18 05:07:17;;;;;;;4.43;1.23;;;12.40;99.90;;;;;;4937984;28;95345;-73
2022/09/18 05:09:44;;;;;;;4.70;1.15;;;12.40;99.90;;;;;;4921201;28;92369;-73
2022/09/18 05:12:11;;;;;;;3.90;1.30;;;12.40;99.90;;;;;;4937386;28;92533;-73
2022/09/18 05:14:39;;;;;;;5.97;1.67;;;12.50;99.90;;;;;;4935635;28;97907;-73
2022/09/18 05:17:09;;;;;;;6.05;1.63;;;12.50;99.90;;;;;;4937149;28;97565;-73
2022/09/18 05:19:38;;;;;;;6.68;1.30;;;12.50;99.90;;;;;;4938701;28;92479;-73
2022/09/18 05:22:11;;;;;;;8.32;1.80;;;12.40;99.90;;;;;;4937397;28;92545;-73
2022/09/18 05:24:42;;;;;;;6.72;1.65;;;12.40;99.90;;;;;;4936843;28;95556;-73
2022/09/18 05:27:12;;;;;;;9.65;1.75;;;12.40;99.90;;;;;;4905801;28;95431;-73
2022/09/18 05:29:39;;;;;;;5.60;1.20;;;12.40;99.90;;;;;;4937208;28;92688;-73
2022/09/18 05:32:13;;;;;;;6.47;1.30;;;12.40;99.90;;;;;;4937627;28;91739;-73
2022/09/18 05:34:41;;;;;;;7.15;1.15;;;12.40;99.90;;;;;;4937047;28;95452;-73
2022/09/18 05:37:09;;;;;;;10.23;2.17;;;12.40;99.90;;;;;;4936964;28;94493;-73
2022/09/18 05:39:38;;;;;;;3.55;1.05;;;12.40;99.90;;;;;;4935764;28;94873;-73
2022/09/18 05:42:05;;;;;;;8.55;1.65;;;12.40;99.90;;;;;;4936474;28;92497;-73
2022/09/18 05:44:32;;;;;;;5.40;1.45;;;12.40;99.90;;;;;;4938178;28;93210;-73
2022/09/18 05:47:00;;;;;;;6.82;1.40;;;12.40;99.90;;;;;;4904922;28;94806;-73
2022/09/18 05:49:27;;;;;;;7.82;1.90;;;12.40;99.90;;;;;;4936895;28;92464;-73
2022/09/18 05:51:55;;;;;;;5.00;1.30;;;12.50;99.90;;;;;;4920708;28;92483;-73
2022/09/18 05:54:22;;;;;;;7.43;1.50;;;12.50;99.90;;;;;;4936716;28;95885;-73
2022/09/18 05:56:50;;;;;;;5.45;2.03;;;12.50;99.90;;;;;;4936660;28;95435;-73
2022/09/18 05:59:16;;;;;;;6.28;1.23;;;12.60;99.90;;;;;;4904781;28;92530;-73
2022/09/18 06:01:46;;;;;;;3.92;0.95;;;12.60;99.90;;;;;;4920891;28;92516;-73
2022/09/18 06:04:35;;;;;;;9.02;1.63;;;12.50;99.90;;;;;;4908910;28;96830;-73
2022/09/18 06:07:06;;;;;;;3.10;1.05;;;12.50;99.90;;;;;;4920663;28;96785;-73
2022/09/18 06:09:34;;;;;;;3.03;1.02;;;12.60;99.90;;;;;;4936515;28;92423;-73
2022/09/18 06:12:01;;;;;;;3.53;1.20;;;12.60;99.90;;;;;;4920320;28;92806;-73
2022/09/18 06:14:31;;;;;;;6.95;1.50;;;12.60;99.90;;;;;;4936351;28;95143;-73
2022/09/18 06:16:59;;;;;;;8.57;1.40;;;12.60;99.90;;;;;;4935932;28;95537;-73
2022/09/18 06:19:26;;;;;;;4.95;1.15;;;12.70;99.90;;;;;;4936339;28;92770;-73
2022/09/18 06:21:53;;;;;;;3.72;1.00;;;12.70;99.90;;;;;;4920637;28;91794;-73
2022/09/18 06:24:21;;;;;;;4.22;1.10;;;12.70;99.90;;;;;;4920401;28;95653;-73
2022/09/18 06:27:08;;;;;;;4.72;1.33;;;12.70;99.90;;;;;;4935674;28;95393;-73
2022/09/18 06:29:37;;;;;;;3.28;1.30;;;12.70;99.90;;;;;;4919484;28;94883;-73
2022/09/18 06:32:09;;;;;;;5.30;1.95;;;12.70;99.90;;;;;;4920806;28;93096;-73
2022/09/18 06:34:37;;;;;;;7.85;3.17;;;12.70;99.90;;;;;;4936013;28;94601;-73
2022/09/18 06:37:09;;;;;;;5.43;2.65;;;12.80;99.90;;;;;;4935226;28;95366;-73
2022/09/18 06:39:42;;;;;;;7.68;2.88;;;12.80;99.90;;;;;;4937037;28;92462;-73
2022/09/18 06:42:18;;;;;;;3.05;1.55;;;12.80;99.90;;;;;;4935242;28;92478;-73
2022/09/18 06:45:00;;;;;;;3.53;1.52;;;12.80;99.90;;;;;;4935852;28;95094;-73
2022/09/18 06:47:28;;;;;;;3.15;1.17;;;12.80;99.90;;;;;;4920399;28;95751;-73
2022/09/18 06:49:55;;;;;;;4.63;1.35;;;12.80;99.90;;;;;;4935837;28;92472;-73
2022/09/18 06:52:22;;;;;;;4.70;0.90;;;12.90;99.90;;;;;;4904032;28;92546;-73
2022/09/18 06:54:53;;;;;;;4.88;1.40;;;12.90;99.90;;;;;;4934270;28;97473;-73
2022/09/18 06:57:30;;;;;;;3.88;0.88;;;13.00;99.90;;;;;;4935666;28;98115;-73
2022/09/18 06:59:57;;;;;;;5.68;1.15;;;13.00;99.90;;;;;;4935514;28;93027;-73
2022/09/18 07:02:24;;;;;;;5.40;1.70;;;13.10;99.90;;;;;;4919857;28;92586;-73
2022/09/18 07:05:11;;;;;;;5.78;1.08;;;13.20;99.90;;;;;;4925172;28;92920;-73
2022/09/18 07:07:44;;;;;;;3.80;2.03;;;13.30;99.90;;;;;;4935678;28;94041;-73
2022/09/18 07:10:11;;;;;;;4.20;1.13;;;13.40;99.90;;;;;;4937000;28;92448;-73
2022/09/18 07:12:47;;;;;;;7.00;1.20;;;13.50;99.90;;;;;;4935988;28;91753;-73
2022/09/18 07:15:19;;;;;;;6.60;1.55;;;13.60;99.90;;;;;;4919435;28;95879;-73
2022/09/18 07:17:46;;;;;;;5.32;1.52;;;13.60;99.90;;;;;;4919289;28;95589;-73
2022/09/18 07:20:15;;;;;;;5.07;1.10;;;13.80;99.90;;;;;;4934134;28;94960;-73
2022/09/18 07:22:50;;;;;;;6.15;1.77;;;13.90;99.90;;;;;;4919481;28;92537;-73
2022/09/18 07:25:17;;;;;;;7.75;1.67;;;13.90;99.90;;;;;;4935173;28;95038;-73
2022/09/18 07:27:47;;;;;;;6.05;2.00;;;14.00;99.90;;;;;;4935176;28;95945;-73
2022/09/18 07:30:16;;;;;;;4.93;1.17;;;14.10;99.90;;;;;;4935148;28;92615;-73
2022/09/18 07:32:44;;;;;;;5.53;1.08;;;14.10;99.90;;;;;;4919379;28;92696;-73
2022/09/18 07:35:14;;;;;;;5.80;1.55;;;14.20;99.90;;;;;;4934957;28;95291;-73
2022/09/18 07:37:41;;;;;;;4.25;1.50;;;14.30;99.90;;;;;;4935407;28;95276;-73
2022/09/18 07:40:14;;;;;;;3.17;1.23;;;14.30;99.90;;;;;;4935154;28;92538;-73
2022/09/18 07:43:07;;;;;;;7.00;1.70;;;14.30;99.90;;;;;;4921861;28;92486;-73
2022/09/18 07:45:37;;;;;;;6.03;2.75;;;14.20;99.90;;;;;;4933942;28;97492;-73
2022/09/18 07:48:05;;;;;;;3.63;1.20;;;14.20;99.90;;;;;;4918698;28;97809;-73
2022/09/18 07:50:38;;;;;;;3.85;1.65;;;14.20;99.90;;;;;;4922191;28;92550;-73
2022/09/18 07:53:09;;;;;;;4.35;1.42;;;14.20;99.90;;;;;;4922656;28;92954;-73
2022/09/18 07:55:41;;;;;;;6.55;1.50;;;14.20;99.90;;;;;;4922854;28;95716;-73
2022/09/18 07:58:08;;;;;;;5.82;1.88;;;14.20;99.90;;;;;;4922550;28;95618;-73
2022/09/18 08:00:54;;;;;;;4.60;1.50;;;14.20;99.90;;;;;;4924787;28;92538;-73
2022/09/18 08:03:24;;;;;;;4.90;1.15;;;14.20;99.90;;;;;;4938526;28;91721;-73
2022/09/18 08:06:08;;;;;;;1.60;1.33;;;14.20;99.90;;;;;;4938092;28;95537;-73
2022/09/18 08:08:36;;;;;;;7.05;2.22;;;14.20;99.90;;;;;;4922205;28;94975;-73
2022/09/18 08:11:13;;;;;;;4.40;1.20;;;14.10;99.90;;;;;;4937144;28;94846;-73
2022/09/18 08:14:12;;;;;;;5.38;1.58;;;14.10;99.90;;;;;;4916633;28;92560;-73
2022/09/18 08:17:10;;;;;;;3.45;1.13;;;14.10;99.90;;;;;;4925986;28;95931;-73
2022/09/18 08:20:08;;;;;;;2.75;1.35;;;14.10;99.90;;;;;;4925451;28;92763;-73
2022/09/18 08:23:08;;;;;;;7.30;1.60;;;14.00;99.90;;;;;;4924880;28;92458;-73
2022/09/18 08:25:37;;;;;;;10.13;1.70;;;14.00;99.90;;;;;;4938201;28;92531;-73
2022/09/18 08:28:05;;;;;;;8.07;1.98;;;14.00;99.90;;;;;;4938045;28;95554;-73
2022/09/18 08:30:43;;;;;;;6.15;1.73;;;14.10;99.90;;;;;;4938268;28;94319;-73
2022/09/18 08:33:11;;;;;;;5.15;1.05;;;14.10;99.90;;;;;;4906438;28;92492;-73
2022/09/18 08:35:39;;;;;;;3.58;1.15;;;14.10;99.90;;;;;;4922038;28;92592;-73
2022/09/18 08:38:25;;;;;;;1.95;1.00;;;14.10;99.90;;;;;;4937151;28;95141;-73
2022/09/18 08:41:44;;;;;;;4.47;1.75;;;14.10;99.90;;;;;;4901585;28;95248;-73
2022/09/18 08:44:22;;;;;;;5.47;1.63;;;14.10;99.90;;;;;;4937723;28;92516;-73
2022/09/18 08:46:59;;;;;;;5.88;1.40;;;14.10;99.90;;;;;;4937823;28;92540;-73
2022/09/18 08:49:36;;;;;;;4.40;1.20;;;14.20;99.90;;;;;;4937502;28;95567;-73
2022/09/18 08:52:11;;;;;;;2.83;1.63;;;14.20;99.90;;;;;;4922034;28;95264;-73
2022/09/18 08:55:04;;;;;;;3.38;1.30;;;14.20;99.90;;;;;;4937799;28;92666;-73
2022/09/18 08:57:45;;;;;;;3.38;1.27;;;14.30;99.90;;;;;;4939282;28;91746;-73
2022/09/18 09:00:14;;;;;;;2.33;0.90;;;14.30;99.90;;;;;;4936683;28;96023;-73
2022/09/18 09:02:49;;;;;;;3.00;1.83;;;14.30;99.90;;;;;;4937460;28;95291;-73
2022/09/18 09:05:31;;;;;;;1.83;0.88;;;14.30;99.90;;;;;;4936426;28;94903;-73
2022/09/18 09:08:36;;;;;;;5.53;1.45;;;14.40;99.90;;;;;;4937353;28;92488;-73
2022/09/18 09:11:23;;;;;;;7.10;2.30;;;14.40;99.90;;;;;;4928605;28;95550;-73
2022/09/18 09:14:01;;;;;;;2.85;1.35;;;14.40;99.90;;;;;;4937610;28;92986;-73
2022/09/18 09:16:44;;;;;;;2.63;1.17;;;14.40;99.90;;;;;;4937256;28;92664;-73
2022/09/18 09:19:32;;;;;;;3.00;1.20;;;14.30;99.90;;;;;;4937133;28;92500;-73
2022/09/18 09:22:41;;;;;;;3.40;1.00;;;14.30;99.90;;;;;;4921111;28;95493;-73
2022/09/18 09:25:37;;;;;;;3.95;2.67;;;14.30;99.90;;;;;;4881874;28;93036;-73
2022/09/18 09:28:15;;;;;;;8.70;7.05;;;14.30;99.90;;;;;;4866935;28;92697;-73
2022/09/18 09:31:09;;;;;;;3.88;1.10;;;14.20;99.90;;;;;;4899958;28;92539;-73
2022/09/18 09:34:05;;;;;;;4.00;1.35;;;14.20;99.90;;;;;;4935888;28;95060;-73
2022/09/18 09:36:50;;;;;;;4.60;1.38;;;14.20;99.90;;;;;;4922638;28;97928;-73
2022/09/18 09:39:24;;;;;;;2.38;0.90;;;14.20;99.90;;;;;;4937936;28;92489;-73
2022/09/18 09:41:58;;;;;;;2.97;1.30;;;14.20;99.90;;;;;;4920880;28;92544;-73
2022/09/18 09:44:40;;;;;;;3.25;1.10;;;14.20;99.90;;;;;;4920618;28;95315;-73
2022/09/18 09:47:27;;;;;;;7.35;1.50;;;14.10;99.90;;;;;;4936668;28;95684;-73
2022/09/18 09:49:53;;;;;;;3.67;1.30;;;14.10;99.90;;;;;;4936857;28;92389;-73
2022/09/18 09:52:25;;;;;;;4.70;1.10;;;13.90;99.90;;;;;;4937228;28;91757;-73
2022/09/18 09:55:20;;;;;;;3.10;2.10;;;13.80;99.90;;;;;;4921165;28;95884;-73
2022/09/18 09:58:08;;;;;;;5.88;2.65;;;13.90;99.90;;;;;;4936762;28;95349;-73
2022/09/18 10:00:59;;;;;;;3.67;1.15;;;13.80;99.90;;;;;;4919538;28;95458;-73
2022/09/18 10:03:33;;;;;;;4.80;1.38;;;13.90;99.90;;;;;;4936430;28;92627;-73
2022/09/18 10:06:22;;;;;;;4.97;1.42;;;14.00;99.90;;;;;;4936378;28;95373;-73
2022/09/18 10:09:15;;;;;;;3.45;1.30;;;14.00;99.90;;;;;;4936448;28;95340;-73
2022/09/18 10:11:55;;;;;;;1.75;1.08;;;14.10;99.90;;;;;;4926943;28;92451;-73
2022/09/18 10:14:27;;;;;;;6.80;1.40;;;14.10;99.90;;;;;;4936305;28;92559;-73
2022/09/18 10:16:56;;;;;;;6.38;1.27;;;14.20;99.90;;;;;;4936321;28;96104;-73
2022/09/18 10:19:33;;;;;;;2.42;1.65;;;14.30;99.90;;;;;;4920448;28;95254;-73
2022/09/18 10:22:06;;;;;;;4.20;1.67;;;14.50;99.90;;;;;;4936864;28;92544;-73
2022/09/18 10:25:02;;;;;;;1.73;1.08;;;14.60;99.90;;;;;;4936233;28;92475;-73
2022/09/18 10:27:30;;;;;;;4.45;1.50;;;14.60;99.90;;;;;;4932463;28;97735;-74
2022/09/18 10:29:58;;;;;;;2.60;1.60;;;14.60;99.90;;;;;;4936091;28;97967;-73
2022/09/18 10:32:41;;;;;;;2.35;1.00;;;14.70;99.90;;;;;;4936375;28;92519;-73
2022/09/18 10:35:18;;;;;;;2.97;1.38;;;14.70;99.90;;;;;;4906781;28;93008;-73
2022/09/18 10:37:45;;;;;;;3.20;2.45;;;14.90;99.90;;;;;;4935699;28;95827;-73
2022/09/18 10:40:38;;;;;;;4.45;1.40;;;15.00;99.90;;;;;;4935742;28;95333;-73
2022/09/18 10:43:16;;;;;;;3.50;1.25;;;15.20;99.90;;;;;;4935846;28;92539;-73
2022/09/18 10:45:51;;;;;;;4.13;1.63;;;15.30;99.90;;;;;;4936248;28;91716;-73
2022/09/18 10:48:29;;;;;;;3.10;1.02;;;15.50;99.90;;;;;;4935600;28;95574;-73
2022/09/18 10:51:01;;;;;;;3.75;1.63;;;15.50;99.90;;;;;;4935715;28;95435;-73
2022/09/18 10:53:41;;;;;;;5.00;1.70;;;15.70;99.90;;;;;;4934632;28;94833;-73
2022/09/18 10:56:20;;;;;;;4.05;1.23;;;15.70;99.60;;;;;;4935843;28;92400;-73
2022/09/18 10:58:51;;;;;;;2.65;1.15;;;15.80;99.50;;;;;;4935653;28;95068;-73
2022/09/18 11:01:18;;;;;;;4.30;2.15;;;15.90;99.40;;;;;;4935557;28;95629;-73
2022/09/18 11:04:01;;;;;;;5.80;1.65;;;16.00;99.30;;;;;;4935615;28;92543;-73
2022/09/18 11:06:35;;;;;;;5.45;1.20;;;16.20;99.00;;;;;;4920134;28;93108;-73
2022/09/18 11:09:39;;;;;;;6.90;1.50;;;16.20;98.80;;;;;;4933633;28;94033;-74
2022/09/18 11:12:20;;;;;;;4.68;2.00;;;16.30;98.70;;;;;;4936105;28;95372;-73
2022/09/18 11:14:55;;;;;;;3.63;0.95;;;16.30;98.70;;;;;;4935461;28;92491;-74
2022/09/18 11:17:28;;;;;;;6.47;1.67;;;16.40;98.80;;;;;;4935651;28;92570;-74
2022/09/18 11:19:59;;;;;;;4.90;1.20;;;16.40;98.80;;;;;;4934159;28;97072;-75
2022/09/18 11:22:46;;;;;;;7.05;1.80;;;16.50;98.60;;;;;;4934573;28;96193;-75
2022/09/18 11:25:26;;;;;;;7.07;1.70;;;16.50;98.40;;;;;;4935302;28;93027;-75
2022/09/18 11:28:27;;;;;;;7.27;1.80;;;16.50;98.20;;;;;;4935562;28;92595;-75
2022/09/18 11:30:57;;;;;;;6.63;3.00;;;16.60;98.10;;;;;;4935303;28;95549;-75
2022/09/18 11:33:29;;;;;;;4.90;3.33;;;16.60;98.10;;;;;;4935135;28;95461;-75
2022/09/18 11:36:11;;;;;;;5.90;2.78;;;16.70;98.00;;;;;;4935427;28;92544;-75
2022/09/18 11:38:41;;;;;;;4.57;1.60;;;16.90;97.80;;;;;;4935545;28;91680;-75
2022/09/18 11:41:12;;;;;;;5.07;2.17;;;16.90;97.60;;;;;;4934419;28;94415;-75
2022/09/18 11:43:44;;;;;;;6.90;3.30;;;17.00;97.50;;;;;;4919748;28;95265;-75
2022/09/18 11:46:16;;;;;;;7.05;2.15;;;17.00;97.40;;;;;;4933843;28;94879;-75
2022/09/18 11:48:58;;;;;;;5.53;2.80;;;17.10;97.30;;;;;;4918717;28;92429;-76
2022/09/18 11:51:55;;;;;;;7.07;2.63;;;17.20;97.30;;;;;;4934930;28;95949;-76
2022/09/18 11:54:50;;;;;;;5.43;2.83;;;17.20;97.30;;;;;;4920074;28;95041;-76
2022/09/18 11:57:26;;;;;;;6.82;2.10;;;17.20;97.00;;;;;;4919019;28;92555;-76
2022/09/18 12:00:01;;;;;;;4.47;1.70;;;17.20;96.80;;;;;;4934902;28;92435;-76
2022/09/18 12:03:06;;;;;;;7.07;1.73;;;17.20;97.10;;;;;;4938217;28;93094;-76
2022/09/18 12:05:50;;;;;;;6.20;2.13;;;17.30;97.00;;;;;;4937227;28;95690;-76
2022/09/18 12:08:58;;;;;;;5.97;2.65;;;17.30;96.40;;;;;;4954571;28;92578;-76
2022/09/18 12:12:07;;;;;;;4.18;1.90;;;17.30;96.60;;;;;;4917680;28;92519;-76
2022/09/18 12:15:19;;;;;;;6.65;2.65;;;17.30;96.70;;;;;;4902174;28;97966;-76
2022/09/18 12:17:54;;;;;;;6.68;1.90;;;17.20;96.90;;;;;;4970435;28;98956;-76
2022/09/18 12:20:30;;;;;;;7.30;2.03;;;17.10;97.30;;;;;;4954398;28;92568;-76
2022/09/18 12:23:00;;;;;;;4.72;1.92;;;17.10;97.10;;;;;;4954149;28;92532;-76
2022/09/18 12:25:42;;;;;;;3.50;1.80;;;17.10;97.00;;;;;;4954267;28;95735;-76
2022/09/18 12:28:34;;;;;;;7.00;2.03;;;17.00;97.10;;;;;;4954210;28;95393;-76
2022/09/18 12:31:15;;;;;;;6.78;2.08;;;17.00;97.20;;;;;;4954362;28;92633;-76
2022/09/18 12:34:09;;;;;;;5.93;1.60;;;16.90;97.20;;;;;;4955768;28;91776;-76
2022/09/18 12:36:51;;;;;;;6.63;2.55;;;16.90;97.30;;;;;;4957437;28;93232;-76
2022/09/18 12:39:23;;;;;;;5.50;1.90;;;16.90;97.60;;;;;;4958791;28;92758;-76
2022/09/18 12:42:38;;;;;;;6.93;2.27;;;16.90;97.80;;;;;;4955556;28;97881;-76
2022/09/18 12:45:47;;;;;;;8.48;2.13;;;17.00;97.50;;;;;;4957554;28;92458;-76
2022/09/18 12:48:17;;;;;;;11.68;3.58;;;17.10;97.50;;;;;;4941341;28;93403;-76
2022/09/18 12:51:35;;;;;;;8.40;1.90;;;17.10;97.60;;;;;;4958290;28;93542;-76
2022/09/18 12:54:10;;;;;;;6.80;2.33;;;17.30;97.30;;;;;;4949329;28;92530;-76
2022/09/18 12:56:45;;;;;;;8.48;2.00;;;17.30;97.00;;;;;;4958653;28;92515;-76
2022/09/18 12:59:40;;;;;;;6.43;1.75;;;17.30;97.00;;;;;;4956785;28;94190;-76
2022/09/18 13:02:07;;;;;;;6.40;1.77;;;17.40;96.50;;;;;;4958746;28;92799;-76
2022/09/18 13:04:47;;;;;;;5.47;1.67;;;17.30;96.70;;;;;;4940582;28;96132;-76
2022/09/18 13:07:28;;;;;;;5.75;1.70;;;17.50;96.60;;;;;;4958632;28;92495;-76
2022/09/18 13:10:11;;;;;;;8.07;3.15;;;17.50;96.50;;;;;;4956913;28;97067;-76
2022/09/18 13:12:50;;;;;;;7.13;2.22;;;17.50;96.60;;;;;;4958263;28;95442;-76
2022/09/18 13:15:33;;;;;;;4.90;1.52;;;17.50;96.50;;;;;;4957430;28;92977;-76
2022/09/18 13:18:21;;;;;;;9.80;1.70;;;17.60;96.60;;;;;;4956394;28;92469;-76
2022/09/18 13:20:50;;;;;;;6.50;1.77;;;17.70;96.30;;;;;;4956464;28;95805;-76
2022/09/18 13:23:22;;;;;;;8.35;2.53;;;17.70;96.10;;;;;;4957707;28;92527;-76
2022/09/18 13:25:50;;;;;;;7.97;2.25;;;17.90;96.00;;;;;;4940425;28;92428;-76
2022/09/18 13:28:20;;;;;;;7.65;5.70;;;17.90;95.90;;;;;;4956713;28;91837;-76
2022/09/18 13:31:10;;;;;;;8.50;6.72;;;18.00;95.60;;;;;;4956245;28;94454;-76
2022/09/18 13:33:37;;;;;;;7.20;1.77;;;18.20;95.30;;;;;;4956452;28;93034;-76